createdAt,value
2019-03-10T00:00:41.956Z,8.21
2019-03-10T00:01:41.929Z,8.13
2019-03-10T00:02:41.907Z,8.24
2019-03-10T00:03:41.888Z,8.21
2019-03-10T00:04:41.854Z,8.11
2019-03-10T00:05:41.834Z,8.23
2019-03-10T00:06:41.804Z,8.02
2019-03-10T00:07:41.783Z,8.16
2019-03-10T00:08:41.769Z,8.20
2019-03-10T00:09:41.728Z,8.13
2019-03-10T00:10:41.704Z,8.14
2019-03-10T00:11:41.684Z,8.09
2019-03-10T00:12:41.654Z,8.05
2019-03-10T00:13:41.629Z,8.16
2019-03-10T00:14:41.602Z,8.13
2019-03-10T00:15:41.584Z,8.21
2019-03-10T00:16:41.554Z,8.21
2019-03-10T00:17:41.530Z,8.18
2019-03-10T00:18:41.502Z,8.09
2019-03-10T00:19:41.476Z,8.18
2019-03-10T00:20:41.451Z,8.16
2019-03-10T00:21:41.429Z,8.09
2019-03-10T00:22:41.402Z,8.06
2019-03-10T00:23:41.379Z,8.06
2019-03-10T00:24:41.351Z,8.14
2019-03-10T00:25:41.327Z,8.08
2019-03-10T00:26:41.300Z,8.02
2019-03-10T00:27:41.297Z,8.01
2019-03-10T00:28:41.258Z,8.03
2019-03-10T00:29:41.232Z,8.05
2019-03-10T00:30:41.201Z,8.01
2019-03-10T00:31:41.174Z,7.93
2019-03-10T00:32:41.151Z,7.95
2019-03-10T00:33:41.132Z,7.95
2019-03-10T00:34:41.100Z,7.91
2019-03-10T00:35:41.075Z,7.90
2019-03-10T00:36:41.050Z,7.95
2019-03-10T00:37:41.028Z,7.91
2019-03-10T00:38:40.999Z,7.93
2019-03-10T00:39:40.974Z,7.88
2019-03-10T00:40:40.963Z,7.95
2019-03-10T00:41:41.002Z,7.88
2019-03-10T00:42:40.900Z,7.88
2019-03-10T00:43:40.874Z,7.93
2019-03-10T00:44:40.849Z,7.90
2019-03-10T00:45:40.830Z,7.90
2019-03-10T00:46:40.808Z,7.83
2019-03-10T00:47:40.772Z,7.90
2019-03-10T00:48:40.748Z,7.84
2019-03-10T00:49:40.765Z,7.85
2019-03-10T00:50:40.697Z,7.80
2019-03-10T00:51:40.675Z,7.83
2019-03-10T00:52:40.651Z,7.87
2019-03-10T00:53:40.621Z,7.85
2019-03-10T00:54:40.597Z,7.87
2019-03-10T00:55:40.573Z,7.84
2019-03-10T00:56:40.549Z,7.84
2019-03-10T00:57:40.521Z,7.84
2019-03-10T00:58:40.496Z,7.80
2019-03-10T00:59:40.469Z,7.81
2019-03-10T01:00:40.444Z,7.80
2019-03-10T01:01:40.419Z,7.85
2019-03-10T01:02:40.394Z,7.80
2019-03-10T01:03:40.371Z,7.84
2019-03-10T01:04:40.344Z,7.77
2019-03-10T01:05:40.320Z,7.83
2019-03-10T01:06:40.294Z,7.85
2019-03-10T01:07:40.269Z,7.83
2019-03-10T01:08:40.245Z,7.81
2019-03-10T01:09:40.221Z,7.80
2019-03-10T01:10:40.194Z,7.83
2019-03-10T01:11:40.168Z,7.84
2019-03-10T01:12:40.143Z,7.83
2019-03-10T01:13:40.117Z,7.85
2019-03-10T01:14:40.098Z,7.83
2019-03-10T01:15:40.067Z,7.81
2019-03-10T01:16:40.050Z,7.85
2019-03-10T01:17:40.017Z,7.78
2019-03-10T01:18:39.994Z,7.81
2019-03-10T01:19:39.966Z,7.84
2019-03-10T01:20:39.941Z,7.83
2019-03-10T01:21:39.917Z,7.78
2019-03-10T01:22:39.892Z,7.85
2019-03-10T01:23:39.866Z,7.80
2019-03-10T01:24:39.841Z,7.77
2019-03-10T01:25:39.815Z,7.80
2019-03-10T01:26:39.796Z,7.78
2019-03-10T01:27:39.765Z,7.81
2019-03-10T01:28:39.739Z,7.80
2019-03-10T01:29:39.715Z,7.77
2019-03-10T01:30:39.689Z,7.77
2019-03-10T01:31:39.665Z,7.85
2019-03-10T01:32:39.715Z,7.80
2019-03-10T01:33:39.616Z,7.81
2019-03-10T01:34:39.599Z,7.80
2019-03-10T01:35:39.561Z,7.81
2019-03-10T01:36:39.536Z,7.80
2019-03-10T01:37:39.511Z,7.83
2019-03-10T01:38:39.487Z,7.87
2019-03-10T01:39:39.461Z,7.88
2019-03-10T01:40:39.434Z,7.88
2019-03-10T01:41:39.410Z,7.87
2019-03-10T01:42:39.384Z,7.84
2019-03-10T01:43:39.361Z,7.91
2019-03-10T01:44:39.333Z,7.91
2019-03-10T01:45:39.310Z,7.87
2019-03-10T01:46:39.282Z,7.93
2019-03-10T01:47:39.259Z,7.90
2019-03-10T01:48:39.232Z,7.93
2019-03-10T01:49:39.206Z,7.88
2019-03-10T01:50:39.192Z,7.90
2019-03-10T01:51:39.160Z,7.93
2019-03-10T01:52:39.129Z,7.93
2019-03-10T01:53:39.118Z,7.93
2019-03-10T01:54:39.080Z,7.88
2019-03-10T01:55:39.052Z,7.90
2019-03-10T01:56:39.028Z,7.90
2019-03-10T01:57:39.002Z,7.88
2019-03-10T01:58:38.978Z,7.96
2019-03-10T01:59:38.953Z,7.93
2019-03-10T02:00:38.925Z,7.87
2019-03-10T02:01:38.900Z,7.93
2019-03-10T02:02:38.876Z,7.87
2019-03-10T02:03:38.848Z,7.95
2019-03-10T02:04:38.848Z,7.95
2019-03-10T02:05:38.798Z,7.95
2019-03-10T02:06:38.773Z,7.91
2019-03-10T02:07:38.751Z,7.93
2019-03-10T02:08:38.724Z,7.93
2019-03-10T02:09:38.695Z,7.88
2019-03-10T02:10:38.689Z,7.95
2019-03-10T02:11:38.645Z,7.90
2019-03-10T02:12:38.621Z,7.90
2019-03-10T02:13:38.595Z,7.90
2019-03-10T02:14:38.570Z,7.95
2019-03-10T02:15:38.545Z,7.91
2019-03-10T02:16:38.518Z,7.96
2019-03-10T02:17:38.494Z,7.91
2019-03-10T02:18:38.467Z,7.98
2019-03-10T02:19:38.443Z,7.96
2019-03-10T02:20:38.430Z,7.90
2019-03-10T02:21:38.391Z,7.91
2019-03-10T02:22:38.366Z,7.90
2019-03-10T02:23:38.340Z,7.91
2019-03-10T02:24:38.314Z,7.99
2019-03-10T02:25:38.290Z,7.93
2019-03-10T02:26:38.268Z,8.03
2019-03-10T02:27:38.238Z,7.98
2019-03-10T02:28:38.215Z,8.01
2019-03-10T02:29:38.193Z,7.95
2019-03-10T02:30:38.164Z,8.02
2019-03-10T02:31:38.155Z,7.96
2019-03-10T02:32:38.111Z,8.01
2019-03-10T02:33:38.101Z,8.09
2019-03-10T02:34:38.072Z,7.91
2019-03-10T02:35:38.037Z,8.02
2019-03-10T02:36:38.017Z,7.95
2019-03-10T02:37:38.015Z,8.05
2019-03-10T02:38:37.960Z,8.05
2019-03-10T02:39:37.938Z,7.99
2019-03-10T02:40:37.910Z,8.01
2019-03-10T02:41:37.885Z,8.03
2019-03-10T02:42:37.867Z,8.05
2019-03-10T02:43:37.881Z,8.03
2019-03-10T02:44:37.811Z,8.03
2019-03-10T02:45:37.783Z,8.03
2019-03-10T02:46:37.762Z,7.93
2019-03-10T02:47:37.753Z,8.02
2019-03-10T02:48:37.708Z,8.03
2019-03-10T02:49:37.719Z,8.01
2019-03-10T02:50:37.657Z,8.03
2019-03-10T02:51:37.642Z,8.01
2019-03-10T02:52:37.607Z,8.02
2019-03-10T02:53:37.583Z,7.98
2019-03-10T02:54:37.557Z,8.03
2019-03-10T02:55:37.531Z,8.13
2019-03-10T02:56:37.505Z,8.06
2019-03-10T02:57:37.481Z,8.03
2019-03-10T02:58:37.478Z,8.01
2019-03-10T02:59:37.432Z,8.06
2019-03-10T03:00:37.408Z,7.99
2019-03-10T03:01:37.383Z,7.96
2019-03-10T03:02:37.371Z,8.01
2019-03-10T03:03:37.332Z,8.08
2019-03-10T03:04:37.308Z,8.03
2019-03-10T03:05:37.282Z,8.05
2019-03-10T03:06:37.257Z,8.05
2019-03-10T03:07:37.237Z,8.06
2019-03-10T03:08:37.212Z,8.08
2019-03-10T03:09:37.192Z,8.02
2019-03-10T03:10:37.154Z,8.01
2019-03-10T03:11:37.130Z,7.96
2019-03-10T03:12:37.106Z,8.03
2019-03-10T03:13:37.081Z,8.06
2019-03-10T03:14:37.056Z,8.05
2019-03-10T03:15:37.048Z,7.99
2019-03-10T03:16:37.005Z,8.09
2019-03-10T03:17:37.032Z,8.01
2019-03-10T03:18:36.959Z,8.03
2019-03-10T03:19:37.017Z,8.05
2019-03-10T03:20:36.905Z,8.02
2019-03-10T03:21:42.959Z,8.02
2019-03-10T03:22:36.853Z,8.01
2019-03-10T03:23:36.829Z,8.01
2019-03-10T03:24:36.805Z,8.02
2019-03-10T03:25:36.870Z,8.09
2019-03-10T03:26:36.757Z,8.08
2019-03-10T03:27:36.728Z,8.05
2019-03-10T03:28:36.707Z,8.05
2019-03-10T03:29:36.681Z,8.05
2019-03-10T03:30:36.663Z,8.05
2019-03-10T03:31:36.631Z,8.05
2019-03-10T03:32:36.613Z,8.06
2019-03-10T03:33:36.588Z,8.09
2019-03-10T03:34:36.560Z,8.03
2019-03-10T03:35:36.528Z,8.05
2019-03-10T03:36:36.503Z,8.05
2019-03-10T03:37:36.481Z,8.06
2019-03-10T03:38:36.456Z,7.99
2019-03-10T03:39:36.429Z,8.08
2019-03-10T03:40:36.405Z,8.03
2019-03-10T03:41:36.383Z,8.06
2019-03-10T03:42:36.364Z,8.01
2019-03-10T03:43:36.329Z,8.03
2019-03-10T03:44:36.306Z,8.08
2019-03-10T03:45:36.278Z,8.03
2019-03-10T03:46:36.260Z,7.99
2019-03-10T03:47:36.228Z,8.02
2019-03-10T03:48:36.203Z,8.05
2019-03-10T03:49:36.183Z,7.96
2019-03-10T03:50:36.154Z,8.05
2019-03-10T03:51:36.130Z,7.91
2019-03-10T03:52:36.106Z,7.98
2019-03-10T03:53:36.081Z,7.93
2019-03-10T03:54:36.057Z,7.93
2019-03-10T03:55:36.030Z,7.95
2019-03-10T03:56:36.004Z,7.95
2019-03-10T03:57:35.981Z,7.93
2019-03-10T03:58:35.957Z,7.99
2019-03-10T03:59:35.929Z,7.98
2019-03-10T04:00:35.906Z,7.91
2019-03-10T04:01:35.882Z,7.98
2019-03-10T04:02:35.855Z,7.95
2019-03-10T04:03:35.834Z,7.91
2019-03-10T04:04:35.902Z,7.91
2019-03-10T04:05:35.781Z,7.90
2019-03-10T04:06:35.756Z,7.93
2019-03-10T04:07:35.730Z,7.95
2019-03-10T04:08:35.704Z,7.85
2019-03-10T04:09:35.680Z,7.90
2019-03-10T04:10:35.654Z,7.90
2019-03-10T04:11:35.627Z,7.90
2019-03-10T04:12:35.605Z,7.90
2019-03-10T04:13:35.582Z,7.87
2019-03-10T04:14:35.554Z,7.80
2019-03-10T04:15:35.534Z,7.83
2019-03-10T04:16:35.504Z,7.84
2019-03-10T04:17:35.480Z,7.80
2019-03-10T04:18:35.453Z,7.75
2019-03-10T04:19:35.425Z,7.84
2019-03-10T04:20:35.403Z,7.75
2019-03-10T04:21:35.376Z,7.78
2019-03-10T04:22:35.365Z,7.80
2019-03-10T04:23:35.327Z,7.78
2019-03-10T04:24:35.299Z,7.69
2019-03-10T04:25:35.273Z,7.67
2019-03-10T04:26:35.251Z,7.77
2019-03-10T04:27:35.223Z,7.70
2019-03-10T04:28:35.200Z,7.74
2019-03-10T04:29:35.175Z,7.58
2019-03-10T04:30:35.148Z,7.61
2019-03-10T04:31:35.121Z,7.59
2019-03-10T04:32:35.097Z,7.66
2019-03-10T04:33:35.073Z,7.62
2019-03-10T04:34:35.050Z,7.56
2019-03-10T04:35:35.021Z,7.56
2019-03-10T04:36:34.997Z,7.55
2019-03-10T04:37:34.976Z,7.48
2019-03-10T04:38:34.946Z,7.59
2019-03-10T04:39:34.920Z,7.48
2019-03-10T04:40:34.898Z,7.58
2019-03-10T04:41:34.883Z,7.56
2019-03-10T04:42:34.854Z,7.48
2019-03-10T04:43:34.819Z,7.48
2019-03-10T04:44:36.303Z,7.47
2019-03-10T04:45:34.768Z,7.46
2019-03-10T04:46:34.742Z,7.47
2019-03-10T04:47:34.720Z,7.44
2019-03-10T04:48:34.691Z,7.43
2019-03-10T04:49:34.666Z,7.41
2019-03-10T04:50:34.643Z,7.50
2019-03-10T04:51:34.617Z,7.47
2019-03-10T04:52:34.593Z,7.40
2019-03-10T04:53:34.567Z,7.43
2019-03-10T04:54:34.540Z,7.40
2019-03-10T04:55:34.515Z,7.36
2019-03-10T04:56:34.492Z,7.37
2019-03-10T04:57:34.465Z,7.28
2019-03-10T04:58:34.442Z,7.36
2019-03-10T04:59:34.416Z,7.29
2019-03-10T05:00:34.389Z,7.41
2019-03-10T05:01:34.366Z,7.31
2019-03-10T05:02:34.344Z,7.31
2019-03-10T05:03:34.315Z,7.29
2019-03-10T05:04:34.290Z,7.25
2019-03-10T05:05:34.264Z,7.26
2019-03-10T05:06:34.240Z,7.21
2019-03-10T05:07:34.214Z,7.23
2019-03-10T05:08:34.190Z,7.21
2019-03-10T05:09:34.164Z,7.25
2019-03-10T05:10:34.139Z,7.25
2019-03-10T05:11:34.114Z,7.22
2019-03-10T05:12:34.088Z,7.14
2019-03-10T05:13:34.066Z,7.07
2019-03-10T05:14:34.038Z,7.05
2019-03-10T05:15:34.013Z,7.07
2019-03-10T05:16:33.991Z,7.10
2019-03-10T05:17:33.967Z,7.07
2019-03-10T05:18:33.937Z,7.10
2019-03-10T05:19:33.914Z,6.97
2019-03-10T05:20:33.890Z,6.93
2019-03-10T05:21:33.880Z,6.93
2019-03-10T05:22:33.842Z,6.92
2019-03-10T05:23:33.815Z,6.89
2019-03-10T05:24:33.785Z,6.96
2019-03-10T05:25:33.762Z,6.93
2019-03-10T05:26:33.735Z,6.96
2019-03-10T05:27:33.712Z,6.90
2019-03-10T05:28:33.691Z,6.97
2019-03-10T05:29:33.660Z,6.96
2019-03-10T05:30:33.635Z,6.95
2019-03-10T05:31:33.610Z,7.00
2019-03-10T05:32:33.586Z,6.92
2019-03-10T05:33:33.558Z,6.96
2019-03-10T05:34:33.543Z,7.00
2019-03-10T05:35:33.508Z,7.03
2019-03-10T05:36:33.484Z,7.11
2019-03-10T05:37:33.461Z,7.04
2019-03-10T05:38:33.440Z,7.05
2019-03-10T05:39:33.409Z,7.01
2019-03-10T05:40:33.387Z,7.10
2019-03-10T05:41:33.359Z,7.05
2019-03-10T05:42:33.334Z,7.10
2019-03-10T05:43:33.309Z,7.04
2019-03-10T05:44:33.345Z,7.04
2019-03-10T05:45:33.260Z,7.01
2019-03-10T05:46:33.238Z,7.03
2019-03-10T05:47:33.213Z,6.96
2019-03-10T05:48:33.186Z,7.01
2019-03-10T05:49:33.160Z,6.96
2019-03-10T05:50:33.139Z,7.05
2019-03-10T05:51:33.110Z,7.04
2019-03-10T05:52:33.086Z,7.05
2019-03-10T05:53:33.063Z,7.07
2019-03-10T05:54:33.040Z,7.08
2019-03-10T05:55:33.013Z,7.14
2019-03-10T05:56:32.988Z,7.10
2019-03-10T05:57:32.968Z,7.13
2019-03-10T05:58:35.115Z,7.11
2019-03-10T05:59:32.916Z,7.11
2019-03-10T06:00:42.153Z,7.11
2019-03-10T06:01:32.869Z,7.08
2019-03-10T06:02:32.845Z,7.13
2019-03-10T06:03:32.818Z,7.07
2019-03-10T06:04:32.791Z,7.14
2019-03-10T06:05:32.767Z,7.11
2019-03-10T06:06:32.758Z,7.19
2019-03-10T06:07:32.718Z,7.21
2019-03-10T06:08:32.808Z,7.10
2019-03-10T06:09:32.669Z,7.07
2019-03-10T06:10:32.651Z,7.08
2019-03-10T06:11:32.875Z,7.08
2019-03-10T06:12:32.595Z,7.15
2019-03-10T06:13:32.626Z,7.21
2019-03-10T06:14:32.549Z,7.14
2019-03-10T06:15:32.526Z,7.08
2019-03-10T06:16:32.498Z,7.08
2019-03-10T06:17:32.477Z,7.14
2019-03-10T06:18:32.455Z,7.14
2019-03-10T06:19:32.426Z,7.23
2019-03-10T06:20:32.422Z,7.18
2019-03-10T06:21:32.379Z,7.23
2019-03-10T06:22:32.353Z,7.15
2019-03-10T06:23:32.327Z,7.19
2019-03-10T06:24:32.305Z,7.18
2019-03-10T06:25:34.945Z,7.22
2019-03-10T06:26:32.253Z,7.18
2019-03-10T06:27:32.257Z,7.14
2019-03-10T06:28:32.204Z,7.10
2019-03-10T06:29:32.179Z,7.07
2019-03-10T06:30:32.156Z,7.22
2019-03-10T06:31:32.130Z,7.14
2019-03-10T06:32:32.106Z,7.19
2019-03-10T06:33:32.082Z,7.21
2019-03-10T06:34:32.057Z,7.14
2019-03-10T06:35:32.058Z,7.23
2019-03-10T06:36:32.010Z,7.11
2019-03-10T06:37:31.983Z,7.11
2019-03-10T06:38:31.965Z,7.19
2019-03-10T06:39:31.935Z,7.14
2019-03-10T06:40:32.648Z,7.11
2019-03-10T06:41:31.886Z,7.25
2019-03-10T06:42:31.885Z,7.19
2019-03-10T06:43:31.836Z,7.25
2019-03-10T06:44:31.820Z,7.14
2019-03-10T06:45:31.789Z,7.10
2019-03-10T06:46:31.764Z,7.11
2019-03-10T06:47:31.739Z,7.10
2019-03-10T06:48:31.715Z,7.21
2019-03-10T06:49:31.691Z,7.08
2019-03-10T06:50:31.668Z,7.21
2019-03-10T06:51:31.644Z,7.19
2019-03-10T06:52:31.617Z,7.10
2019-03-10T06:53:31.596Z,7.19
2019-03-10T06:54:31.595Z,7.21
2019-03-10T06:55:31.556Z,7.15
2019-03-10T06:56:31.520Z,7.21
2019-03-10T06:57:31.495Z,7.21
2019-03-10T06:58:31.470Z,7.14
2019-03-10T06:59:31.446Z,7.22
2019-03-10T07:00:31.425Z,7.26
2019-03-10T07:01:31.398Z,7.11
2019-03-10T07:02:31.373Z,7.23
2019-03-10T07:03:31.352Z,7.18
2019-03-10T07:04:31.326Z,7.21
2019-03-10T07:05:31.301Z,7.19
2019-03-10T07:06:31.280Z,7.21
2019-03-10T07:07:31.250Z,7.25
2019-03-10T07:08:32.684Z,7.28
2019-03-10T07:09:31.202Z,7.28
2019-03-10T07:10:31.177Z,7.29
2019-03-10T07:11:31.155Z,7.32
2019-03-10T07:12:31.128Z,7.26
2019-03-10T07:13:31.104Z,7.26
2019-03-10T07:14:31.084Z,7.28
2019-03-10T07:15:31.055Z,7.28
2019-03-10T07:16:31.032Z,7.40
2019-03-10T07:17:31.015Z,7.41
2019-03-10T07:18:30.983Z,7.43
2019-03-10T07:19:31.021Z,7.43
2019-03-10T07:20:30.934Z,7.43
2019-03-10T07:21:30.911Z,7.40
2019-03-10T07:22:30.885Z,7.41
2019-03-10T07:23:30.861Z,7.43
2019-03-10T07:24:30.881Z,7.41
2019-03-10T07:25:30.816Z,7.43
2019-03-10T07:26:30.789Z,7.46
2019-03-10T07:27:30.764Z,7.48
2019-03-10T07:28:30.742Z,7.40
2019-03-10T07:29:30.715Z,7.53
2019-03-10T07:30:30.728Z,7.53
2019-03-10T07:31:30.667Z,7.46
2019-03-10T07:32:30.643Z,7.50
2019-03-10T07:33:30.618Z,7.48
2019-03-10T07:34:30.597Z,7.51
2019-03-10T07:35:30.571Z,7.47
2019-03-10T07:36:30.563Z,7.53
2019-03-10T07:37:30.522Z,7.51
2019-03-10T07:38:30.496Z,7.47
2019-03-10T07:39:30.472Z,7.50
2019-03-10T07:40:30.448Z,7.56
2019-03-10T07:41:30.428Z,7.64
2019-03-10T07:42:30.402Z,7.66
2019-03-10T07:43:30.386Z,7.58
2019-03-10T07:44:30.351Z,7.59
2019-03-10T07:45:30.328Z,7.64
2019-03-10T07:46:30.304Z,7.64
2019-03-10T07:47:30.278Z,7.66
2019-03-10T07:48:30.256Z,7.61
2019-03-10T07:49:30.231Z,7.69
2019-03-10T07:50:30.215Z,7.64
2019-03-10T07:51:30.183Z,7.67
2019-03-10T07:52:30.161Z,7.75
2019-03-10T07:53:30.134Z,7.77
2019-03-10T07:54:30.110Z,7.70
2019-03-10T07:55:30.086Z,7.75
2019-03-10T07:56:30.061Z,7.75
2019-03-10T07:57:30.038Z,7.58
2019-03-10T07:58:30.015Z,7.75
2019-03-10T07:59:29.989Z,7.80
2019-03-10T08:00:29.970Z,7.59
2019-03-10T08:01:29.949Z,7.62
2019-03-10T08:02:29.924Z,7.67
2019-03-10T08:03:29.893Z,7.80
2019-03-10T08:04:29.868Z,7.66
2019-03-10T08:05:29.845Z,7.72
2019-03-10T08:06:29.819Z,7.64
2019-03-10T08:07:29.796Z,7.69
2019-03-10T08:08:29.773Z,7.70
2019-03-10T08:09:29.801Z,7.69
2019-03-10T08:10:29.728Z,7.58
2019-03-10T08:11:29.699Z,7.74
2019-03-10T08:12:29.675Z,7.69
2019-03-10T08:13:29.669Z,7.64
2019-03-10T08:14:29.629Z,7.74
2019-03-10T08:15:29.608Z,7.62
2019-03-10T08:16:29.588Z,7.77
2019-03-10T08:17:29.556Z,7.80
2019-03-10T08:18:29.534Z,7.66
2019-03-10T08:19:29.520Z,7.69
2019-03-10T08:20:29.482Z,7.77
2019-03-10T08:21:29.462Z,7.67
2019-03-10T08:22:29.453Z,7.67
2019-03-10T08:23:29.445Z,7.64
2019-03-10T08:24:29.387Z,7.69
2019-03-10T08:25:29.363Z,7.72
2019-03-10T08:26:29.339Z,7.69
2019-03-10T08:27:29.313Z,7.72
2019-03-10T08:28:29.294Z,7.67
2019-03-10T08:29:29.268Z,7.66
2019-03-10T08:30:29.241Z,7.67
2019-03-10T08:31:29.218Z,7.66
2019-03-10T08:32:29.190Z,7.75
2019-03-10T08:33:29.167Z,7.70
2019-03-10T08:34:29.143Z,7.72
2019-03-10T08:35:29.121Z,7.77
2019-03-10T08:36:29.095Z,7.77
2019-03-10T08:37:29.069Z,7.84
2019-03-10T08:38:29.051Z,7.78
2019-03-10T08:39:29.021Z,7.81
2019-03-10T08:40:28.997Z,7.81
2019-03-10T08:41:28.971Z,7.77
2019-03-10T08:42:28.948Z,7.78
2019-03-10T08:43:28.923Z,7.80
2019-03-10T08:44:28.900Z,7.81
2019-03-10T08:45:28.878Z,7.85
2019-03-10T08:46:28.854Z,7.66
2019-03-10T08:47:28.827Z,7.74
2019-03-10T08:48:28.804Z,7.83
2019-03-10T08:49:28.779Z,7.72
2019-03-10T08:50:28.754Z,7.80
2019-03-10T08:51:28.729Z,7.75
2019-03-10T08:52:28.707Z,7.75
2019-03-10T08:53:28.686Z,7.75
2019-03-10T08:54:28.659Z,7.80
2019-03-10T08:55:28.634Z,7.64
2019-03-10T08:56:28.624Z,7.66
2019-03-10T08:57:28.585Z,7.74
2019-03-10T08:58:28.591Z,7.72
2019-03-10T08:59:28.540Z,7.72
2019-03-10T09:00:28.512Z,7.75
2019-03-10T09:01:28.500Z,7.70
2019-03-10T09:02:28.468Z,7.72
2019-03-10T09:03:28.445Z,7.69
2019-03-10T09:04:28.414Z,7.70
2019-03-10T09:05:28.392Z,7.72
2019-03-10T09:06:28.369Z,7.70
2019-03-10T09:07:28.346Z,7.72
2019-03-10T09:08:28.317Z,7.74
2019-03-10T09:09:28.295Z,7.75
2019-03-10T09:10:28.269Z,7.72
2019-03-10T09:11:28.275Z,7.70
2019-03-10T09:12:28.224Z,7.72
2019-03-10T09:13:28.196Z,7.74
2019-03-10T09:14:28.177Z,7.64
2019-03-10T09:15:28.148Z,7.81
2019-03-10T09:16:28.126Z,7.67
2019-03-10T09:17:28.111Z,7.62
2019-03-10T09:18:28.075Z,7.66
2019-03-10T09:19:28.050Z,7.75
2019-03-10T09:20:28.026Z,7.69
2019-03-10T09:21:28.004Z,7.72
2019-03-10T09:22:27.982Z,7.66
2019-03-10T09:23:27.954Z,7.75
2019-03-10T09:24:27.935Z,7.69
2019-03-10T09:25:27.909Z,7.75
2019-03-10T09:26:27.882Z,7.70
2019-03-10T09:27:28.690Z,7.75
2019-03-10T09:28:27.851Z,7.78
2019-03-10T09:29:27.812Z,7.78
2019-03-10T09:30:27.784Z,7.78
2019-03-10T09:31:27.757Z,7.80
2019-03-10T09:32:27.733Z,7.83
2019-03-10T09:33:27.710Z,7.90
2019-03-10T09:34:27.688Z,7.91
2019-03-10T09:35:27.662Z,7.90
2019-03-10T09:36:27.642Z,7.90
2019-03-10T09:37:27.620Z,7.90
2019-03-10T09:38:27.590Z,7.90
2019-03-10T09:39:27.564Z,7.88
2019-03-10T09:40:27.541Z,7.93
2019-03-10T09:41:27.516Z,7.93
2019-03-10T09:42:27.492Z,7.95
2019-03-10T09:43:27.468Z,8.01
2019-03-10T09:44:27.443Z,7.93
2019-03-10T09:45:27.425Z,7.95
2019-03-10T09:46:27.400Z,7.91
2019-03-10T09:47:27.374Z,7.95
2019-03-10T09:48:27.348Z,7.81
2019-03-10T09:49:27.322Z,7.75
2019-03-10T09:50:27.299Z,7.81
2019-03-10T09:51:27.273Z,7.78
2019-03-10T09:52:27.251Z,7.80
2019-03-10T09:53:27.228Z,7.75
2019-03-10T09:54:27.202Z,7.80
2019-03-10T09:55:27.178Z,7.81
2019-03-10T09:56:27.159Z,7.83
2019-03-10T09:57:27.158Z,7.85
2019-03-10T09:58:27.129Z,7.87
2019-03-10T09:59:27.080Z,7.83
2019-03-10T10:00:27.115Z,7.91
2019-03-10T10:01:27.036Z,7.90
2019-03-10T10:02:27.008Z,7.95
2019-03-10T10:03:26.986Z,7.95
2019-03-10T10:04:26.962Z,7.95
2019-03-10T10:05:26.936Z,8.01
2019-03-10T10:06:26.914Z,7.98
2019-03-10T10:07:26.890Z,7.93
2019-03-10T10:08:26.866Z,7.96
2019-03-10T10:09:26.845Z,8.01
2019-03-10T10:10:26.817Z,8.05
2019-03-10T10:11:26.792Z,8.09
2019-03-10T10:12:26.819Z,8.18
2019-03-10T10:13:26.744Z,8.18
2019-03-10T10:14:26.719Z,8.39
2019-03-10T10:15:26.725Z,8.44
2019-03-10T10:16:26.691Z,8.50
2019-03-10T10:17:26.649Z,8.46
2019-03-10T10:18:26.628Z,8.41
2019-03-10T10:19:26.599Z,8.45
2019-03-10T10:20:26.997Z,8.35
2019-03-10T10:21:26.555Z,8.28
2019-03-10T10:22:26.529Z,8.38
2019-03-10T10:23:26.509Z,8.23
2019-03-10T10:24:26.481Z,8.32
2019-03-10T10:25:26.457Z,8.08
2019-03-10T10:26:26.438Z,8.08
2019-03-10T10:27:26.409Z,8.09
2019-03-10T10:28:26.384Z,8.14
2019-03-10T10:29:26.361Z,8.13
2019-03-10T10:30:26.382Z,8.13
2019-03-10T10:31:26.313Z,8.09
2019-03-10T10:32:26.290Z,8.16
2019-03-10T10:33:26.266Z,8.05
2019-03-10T10:34:26.241Z,8.08
2019-03-10T10:35:26.217Z,8.06
2019-03-10T10:36:26.196Z,8.01
2019-03-10T10:37:26.180Z,7.90
2019-03-10T10:38:26.151Z,7.88
2019-03-10T10:39:26.129Z,7.87
2019-03-10T10:40:26.099Z,7.80
2019-03-10T10:41:26.074Z,7.90
2019-03-10T10:42:26.050Z,7.90
2019-03-10T10:43:26.028Z,8.01
2019-03-10T10:44:26.003Z,8.05
2019-03-10T10:45:25.979Z,8.06
2019-03-10T10:46:25.956Z,8.14
2019-03-10T10:47:25.929Z,8.14
2019-03-10T10:48:25.910Z,8.11
2019-03-10T10:49:25.885Z,8.05
2019-03-10T10:50:25.864Z,8.13
2019-03-10T10:51:25.845Z,8.21
2019-03-10T10:52:25.813Z,8.18
2019-03-10T10:53:25.790Z,8.23
2019-03-10T10:54:25.765Z,8.21
2019-03-10T10:55:25.740Z,8.24
2019-03-10T10:56:25.716Z,8.18
2019-03-10T10:57:25.712Z,8.18
2019-03-10T10:58:25.669Z,8.18
2019-03-10T10:59:25.645Z,8.18
2019-03-10T11:00:25.632Z,8.24
2019-03-10T11:01:25.595Z,8.36
2019-03-10T11:02:25.574Z,8.32
2019-03-10T11:03:25.549Z,8.32
2019-03-10T11:04:25.662Z,8.42
2019-03-10T11:05:25.499Z,8.42
2019-03-10T11:06:25.476Z,8.42
2019-03-10T11:07:25.454Z,8.36
2019-03-10T11:08:25.429Z,8.42
2019-03-10T11:09:25.404Z,8.36
2019-03-10T11:10:25.381Z,8.45
2019-03-10T11:11:25.356Z,8.44
2019-03-10T11:12:25.343Z,8.46
2019-03-10T11:13:25.309Z,8.50
2019-03-10T11:14:25.285Z,8.44
2019-03-10T11:15:25.260Z,8.50
2019-03-10T11:16:25.237Z,8.46
2019-03-10T11:17:25.232Z,8.52
2019-03-10T11:18:25.190Z,8.41
2019-03-10T11:19:25.165Z,8.52
2019-03-10T11:20:25.143Z,8.49
2019-03-10T11:21:25.123Z,8.56
2019-03-10T11:22:25.102Z,8.49
2019-03-10T11:23:25.071Z,8.50
2019-03-10T11:24:25.048Z,8.57
2019-03-10T11:25:25.025Z,8.59
2019-03-10T11:26:25.000Z,8.64
2019-03-10T11:27:24.976Z,8.54
2019-03-10T11:28:24.966Z,8.61
2019-03-10T11:29:24.932Z,8.60
2019-03-10T11:30:24.908Z,8.59
2019-03-10T11:31:24.885Z,8.64
2019-03-10T11:32:24.859Z,8.63
2019-03-10T11:33:27.431Z,8.63
2019-03-10T11:34:24.811Z,8.57
2019-03-10T11:35:24.788Z,8.59
2019-03-10T11:36:24.765Z,8.63
2019-03-10T11:37:24.775Z,8.56
2019-03-10T11:38:24.718Z,8.50
2019-03-10T11:39:24.695Z,8.53
2019-03-10T11:40:24.670Z,8.49
2019-03-10T11:41:33.339Z,8.50
2019-03-10T11:42:24.622Z,8.60
2019-03-10T11:43:24.600Z,8.49
2019-03-10T11:44:24.574Z,8.57
2019-03-10T11:45:24.551Z,8.50
2019-03-10T11:46:24.535Z,8.53
2019-03-10T11:47:24.505Z,8.54
2019-03-10T11:48:24.484Z,8.57
2019-03-10T11:49:24.460Z,8.57
2019-03-10T11:50:24.433Z,8.56
2019-03-10T11:51:24.418Z,8.59
2019-03-10T11:52:24.390Z,8.57
2019-03-10T11:53:25.730Z,8.60
2019-03-10T11:54:24.342Z,8.53
2019-03-10T11:55:24.414Z,8.64
2019-03-10T11:56:24.373Z,8.63
2019-03-10T11:57:24.267Z,8.68
2019-03-10T11:58:24.246Z,8.66
2019-03-10T11:59:24.223Z,8.72
2019-03-10T12:00:24.301Z,8.78
2019-03-10T12:01:24.182Z,8.63
2019-03-10T12:02:24.151Z,8.68
2019-03-10T12:03:24.129Z,8.71
2019-03-10T12:04:24.102Z,8.64
2019-03-10T12:05:24.081Z,8.71
2019-03-10T12:06:24.067Z,8.69
2019-03-10T12:07:24.042Z,8.69
2019-03-10T12:08:24.018Z,8.75
2019-03-10T12:09:23.986Z,8.66
2019-03-10T12:10:23.963Z,8.64
2019-03-10T12:11:23.937Z,8.71
2019-03-10T12:12:23.918Z,8.79
2019-03-10T12:13:23.890Z,8.69
2019-03-10T12:14:23.870Z,8.81
2019-03-10T12:15:23.842Z,8.95
2019-03-10T12:16:23.833Z,8.92
2019-03-10T12:17:23.812Z,8.92
2019-03-10T12:18:23.776Z,8.90
2019-03-10T12:19:23.750Z,8.95
2019-03-10T12:20:23.762Z,8.92
2019-03-10T12:21:23.851Z,8.92
2019-03-10T12:22:23.687Z,8.92
2019-03-10T12:23:23.665Z,8.92
2019-03-10T12:24:23.632Z,8.89
2019-03-10T12:25:23.609Z,8.97
2019-03-10T12:26:23.586Z,8.95
2019-03-10T12:27:23.565Z,8.82
2019-03-10T12:28:23.549Z,8.96
2019-03-10T12:29:23.516Z,8.95
2019-03-10T12:30:23.494Z,8.95
2019-03-10T12:31:23.476Z,8.84
2019-03-10T12:32:23.446Z,8.79
2019-03-10T12:33:23.429Z,8.78
2019-03-10T12:34:23.411Z,8.72
2019-03-10T12:35:33.566Z,8.78
2019-03-10T12:36:23.353Z,8.75
2019-03-10T12:37:23.335Z,8.77
2019-03-10T12:38:23.319Z,8.77
2019-03-10T12:39:23.284Z,8.74
2019-03-10T12:40:23.260Z,8.74
2019-03-10T12:41:23.236Z,8.71
2019-03-10T12:42:23.215Z,8.72
2019-03-10T12:43:23.188Z,8.74
2019-03-10T12:44:23.166Z,8.82
2019-03-10T12:45:23.148Z,8.86
2019-03-10T12:46:23.126Z,8.99
2019-03-10T12:47:23.096Z,9.00
2019-03-10T12:48:23.072Z,9.13
2019-03-10T12:49:23.049Z,9.29
2019-03-10T12:50:23.029Z,9.29
2019-03-10T12:51:23.012Z,9.45
2019-03-10T12:52:23.017Z,9.51
2019-03-10T12:53:22.956Z,9.52
2019-03-10T12:54:22.934Z,9.44
2019-03-10T12:55:22.907Z,9.51
2019-03-10T12:56:22.886Z,9.34
2019-03-10T12:57:22.921Z,9.39
2019-03-10T12:58:22.860Z,9.16
2019-03-10T12:59:22.819Z,9.29
2019-03-10T13:00:22.793Z,9.36
2019-03-10T13:01:22.769Z,9.39
2019-03-10T13:02:22.759Z,9.39
2019-03-10T13:03:22.724Z,9.56
2019-03-10T13:04:22.701Z,9.56
2019-03-10T13:05:22.676Z,9.42
2019-03-10T13:06:22.654Z,9.45
2019-03-10T13:07:22.636Z,9.45
2019-03-10T13:08:22.608Z,9.45
2019-03-10T13:09:22.635Z,9.54
2019-03-10T13:10:22.561Z,9.49
2019-03-10T13:11:22.537Z,9.55
2019-03-10T13:12:22.514Z,9.54
2019-03-10T13:13:22.491Z,9.63
2019-03-10T13:14:22.467Z,9.56
2019-03-10T13:15:22.447Z,9.66
2019-03-10T13:16:22.425Z,9.69
2019-03-10T13:17:22.408Z,9.69
2019-03-10T13:18:22.375Z,9.67